Time;durP1;ratioP1;P1;durP2;ratioP2;P2;SDS_P1;SDS_P2;PMS_P1;PMS_P2;Temp;Humidity;BMP_temperature;BMP_pressure;BME280_temperature;BME280_humidity;BME280_pressure;Samples;Min_cycle;Max_cycle;Signal;HPM_P1;HPM_P2
2022/06/14 00:01:53;;;;;;;4.53;2.63;;;12.80;99.90;;;;;;5050432;28;20951;-75
2022/06/14 00:04:53;;;;;;;3.60;3.30;;;12.60;99.90;;;;;;5049563;28;20891;-75
2022/06/14 00:08:08;;;;;;;4.83;2.20;;;12.60;99.90;;;;;;5046872;28;21059;-76
2022/06/14 00:11:08;;;;;;;4.83;2.40;;;12.60;99.90;;;;;;5042561;28;20461;-76
2022/06/14 00:17:13;;;;;;;4.77;2.47;;;12.70;99.90;;;;;;5048973;28;20549;-76
2022/06/14 00:20:16;;;;;;;5.30;2.57;;;12.70;99.90;;;;;;5048743;28;20775;-77
2022/06/14 00:23:16;;;;;;;6.17;3.10;;;12.70;99.90;;;;;;5048285;28;20537;-75
2022/06/14 00:26:18;;;;;;;4.93;2.57;;;12.70;99.90;;;;;;5051148;28;20563;-75
2022/06/14 00:29:22;;;;;;;3.60;2.70;;;12.70;99.90;;;;;;5049727;28;20518;-77
2022/06/14 00:32:35;;;;;;;7.37;2.80;;;12.70;99.90;;;;;;5051221;28;20855;-77
2022/06/14 00:36:03;;;;;;;5.10;2.43;;;12.60;99.90;;;;;;5045974;28;21486;-77
2022/06/14 00:38:55;;;;;;;2.80;2.20;;;12.60;99.90;;;;;;5043479;28;20570;-76
2022/06/14 00:42:09;;;;;;;3.70;2.20;;;12.60;99.90;;;;;;5041187;28;20485;-75
2022/06/14 00:45:13;;;;;;;6.13;3.20;;;12.60;99.90;;;;;;5051623;28;20559;-76
2022/06/14 00:48:10;;;;;;;5.40;2.40;;;12.50;99.90;;;;;;5049409;28;20457;-76
2022/06/14 00:51:16;;;;;;;6.50;2.80;;;12.50;99.90;;;;;;5046216;28;20662;-75
2022/06/14 00:54:34;;;;;;;8.50;2.87;;;12.30;99.90;;;;;;5049468;28;20527;-76
2022/06/14 00:58:05;;;;;;;7.37;3.20;;;12.40;99.90;;;;;;5050759;28;20450;-75
2022/06/14 01:01:17;;;;;;;3.90;2.77;;;12.40;99.90;;;;;;5047846;28;20473;-75
2022/06/14 01:04:10;;;;;;;7.07;2.70;;;12.30;99.90;;;;;;5047221;28;20565;-76
2022/06/14 01:07:25;;;;;;;4.73;2.23;;;12.40;99.90;;;;;;5048899;28;20454;-76
2022/06/14 01:10:50;;;;;;;;;;;;;;;;;;;;;
2022/06/14 01:13:49;;;;;;;5.83;2.60;;;12.40;99.90;;;;;;5047056;28;20561;-75
2022/06/14 01:17:07;;;;;;;4.20;2.40;;;12.40;99.90;;;;;;5050791;28;21005;-75
2022/06/14 01:19:57;;;;;;;7.17;2.80;;;12.40;99.90;;;;;;5050490;28;20485;-75
2022/06/14 01:23:15;;;;;;;3.83;2.77;;;12.50;99.90;;;;;;5048552;28;20617;-75
2022/06/14 01:26:17;;;;;;;5.50;2.77;;;12.40;99.90;;;;;;5052316;28;20607;-75
2022/06/14 01:29:33;;;;;;;5.17;2.30;;;12.30;99.90;;;;;;5050498;28;20461;-75
2022/06/14 01:32:28;;;;;;;6.13;2.37;;;12.40;99.90;;;;;;5050225;28;20580;-75
2022/06/14 01:35:49;;;;;;;5.67;3.10;;;12.30;99.90;;;;;;5051551;28;20477;-75
2022/06/14 01:39:03;;;;;;;4.00;2.50;;;12.40;99.90;;;;;;5030496;28;20480;-75
2022/06/14 01:42:12;;;;;;;5.40;2.60;;;12.30;99.90;;;;;;5043892;28;20929;-76
2022/06/14 01:45:28;;;;;;;4.80;2.47;;;12.30;99.90;;;;;;5048017;28;20478;-76
2022/06/14 01:48:44;;;;;;;4.70;2.30;;;12.30;99.90;;;;;;5048870;28;20519;-77
2022/06/14 01:51:55;;;;;;;5.37;2.40;;;12.30;99.90;;;;;;5046792;28;20858;-78
2022/06/14 01:58:11;;;;;;;3.73;2.43;;;12.30;99.90;;;;;;5048252;28;20968;-75
2022/06/14 02:01:27;;;;;;;3.30;2.73;;;12.30;99.90;;;;;;5047393;28;21071;-75
2022/06/14 02:04:37;;;;;;;5.60;2.30;;;12.30;99.90;;;;;;5041024;28;20917;-75
2022/06/14 02:07:56;;;;;;;6.73;2.60;;;12.40;99.90;;;;;;5045076;28;20603;-75
2022/06/14 02:11:02;;;;;;;5.43;2.43;;;12.30;99.90;;;;;;5016696;28;20477;-75
2022/06/14 02:13:56;;;;;;;3.57;2.30;;;12.40;99.90;;;;;;5049410;28;20838;-75
2022/06/14 02:17:00;;;;;;;4.63;2.80;;;12.30;99.90;;;;;;5044192;28;20536;-76
2022/06/14 02:20:07;;;;;;;4.90;2.50;;;12.30;99.90;;;;;;5043991;28;20464;-76
2022/06/14 02:23:04;;;;;;;6.63;2.93;;;12.30;99.90;;;;;;5049152;28;20482;-75
2022/06/14 02:26:10;;;;;;;4.60;2.23;;;12.30;99.90;;;;;;5047364;28;20479;-76
2022/06/14 02:29:09;;;;;;;4.47;2.30;;;12.30;99.90;;;;;;5051018;28;20556;-76
2022/06/14 02:32:16;;;;;;;7.10;2.43;;;12.20;99.90;;;;;;5048588;28;20458;-75
2022/06/14 02:35:17;;;;;;;3.60;2.20;;;12.30;99.90;;;;;;5047462;28;20473;-75
2022/06/14 02:38:15;;;;;;;5.47;2.70;;;12.30;99.90;;;;;;5052727;28;20488;-75
2022/06/14 02:41:21;;;;;;;5.97;2.30;;;12.30;99.90;;;;;;5055138;28;20458;-75
2022/06/14 02:44:26;;;;;;;3.70;2.13;;;12.30;99.90;;;;;;5054313;28;20580;-75
2022/06/14 02:47:35;;;;;;;4.77;3.03;;;12.30;99.90;;;;;;5051678;28;21050;-75
2022/06/14 02:51:07;;;;;;;4.03;2.47;;;12.30;99.90;;;;;;5049216;28;20460;-76
2022/06/14 02:54:21;;;;;;;4.47;2.40;;;12.30;99.90;;;;;;5049890;28;20496;-76
2022/06/14 02:57:42;;;;;;;4.77;2.40;;;12.30;99.90;;;;;;5053365;28;20468;-75
2022/06/14 03:00:39;;;;;;;6.70;2.50;;;12.20;99.90;;;;;;5053842;28;20461;-75
2022/06/14 03:03:47;;;;;;;5.00;2.30;;;12.20;99.90;;;;;;5048796;28;20967;-75
2022/06/14 03:07:04;;;;;;;;;;;;;;;;;;;;;
2022/06/14 03:13:25;;;;;;;3.57;2.20;;;12.30;99.90;;;;;;5049468;28;20509;-75
2022/06/14 03:16:57;;;;;;;6.20;2.53;;;12.30;99.90;;;;;;5054041;28;20620;-75
2022/06/14 03:20:04;;;;;;;3.50;2.20;;;12.30;99.90;;;;;;5050913;28;20449;-75
2022/06/14 03:23:21;;;;;;;4.90;2.40;;;12.20;99.90;;;;;;5055090;28;20509;-75
2022/06/14 03:26:44;;;;;;;7.30;2.53;;;12.20;99.90;;;;;;5056014;28;20473;-75
2022/06/14 03:29:48;;;;;;;3.60;2.27;;;12.20;99.90;;;;;;5050694;28;20453;-75
2022/06/14 03:32:45;;;;;;;5.90;2.40;;;12.20;99.90;;;;;;5055689;28;20479;-75
2022/06/14 03:35:44;;;;;;;6.07;2.60;;;12.20;99.90;;;;;;5050183;28;20620;-75
2022/06/14 03:38:58;;;;;;;5.43;2.20;;;12.20;99.90;;;;;;5051750;28;20462;-76
2022/06/14 03:41:59;;;;;;;6.53;2.57;;;12.20;99.90;;;;;;5052368;28;20451;-75
2022/06/14 03:44:57;;;;;;;6.23;3.07;;;12.30;99.90;;;;;;5054740;28;21144;-76
2022/06/14 03:47:47;;;;;;;6.10;2.40;;;12.20;99.90;;;;;;5052597;28;20880;-75
2022/06/14 03:51:11;;;;;;;5.57;3.00;;;12.30;99.90;;;;;;5055222;28;20447;-75
2022/06/14 03:54:17;;;;;;;8.23;2.73;;;12.30;99.90;;;;;;5053276;28;20885;-76
2022/06/14 03:57:53;;;;;;;5.37;2.90;;;12.30;99.90;;;;;;5054323;28;20831;-77
2022/06/14 04:01:16;;;;;;;5.40;3.03;;;12.30;99.90;;;;;;5051788;28;20549;-75
2022/06/14 04:04:39;;;;;;;4.27;2.30;;;12.30;99.90;;;;;;5050458;28;20462;-75
2022/06/14 04:07:53;;;;;;;5.23;2.70;;;12.30;99.90;;;;;;5056383;28;20458;-76
2022/06/14 04:11:17;;;;;;;5.53;2.70;;;12.30;99.90;;;;;;5051287;28;20453;-75
2022/06/14 04:14:34;;;;;;;5.80;2.40;;;12.40;99.90;;;;;;5050370;28;20486;-75
2022/06/14 04:18:02;;;;;;;3.73;2.30;;;12.30;99.90;;;;;;5049781;28;20462;-75
2022/06/14 04:21:13;;;;;;;4.70;2.20;;;12.40;99.90;;;;;;5051163;28;20831;-76
2022/06/14 04:24:28;;;;;;;7.60;2.67;;;12.50;99.90;;;;;;5046296;28;20508;-75
2022/06/14 04:27:20;;;;;;;4.00;3.10;;;12.50;99.90;;;;;;5056691;28;20973;-76
2022/06/14 04:30:37;;;;;;;3.20;1.97;;;12.50;99.90;;;;;;5056392;28;20549;-76
2022/06/14 04:37:29;;;;;;;3.10;2.17;;;12.50;99.90;;;;;;5051963;28;20449;-74
2022/06/14 04:40:41;;;;;;;3.90;2.43;;;12.60;99.90;;;;;;5053697;28;20457;-74
2022/06/14 04:43:46;;;;;;;5.60;3.10;;;12.60;99.90;;;;;;5053933;28;20464;-74
2022/06/14 04:46:56;;;;;;;5.77;2.47;;;12.70;99.90;;;;;;5055234;28;20458;-74
2022/06/14 04:53:53;;;;;;;4.70;2.90;;;12.80;99.90;;;;;;5039393;28;20479;-74
2022/06/14 04:56:52;;;;;;;6.30;2.40;;;12.90;99.90;;;;;;5049944;28;21250;-76
2022/06/14 04:59:47;;;;;;;6.57;2.67;;;12.90;99.90;;;;;;5051112;28;20483;-76
2022/06/14 05:03:13;;;;;;;4.57;2.37;;;13.00;99.90;;;;;;5048035;28;20497;-77
2022/06/14 05:06:38;;;;;;;6.07;2.57;;;13.10;99.90;;;;;;5041053;28;20482;-75
2022/06/14 05:09:57;;;;;;;5.30;2.10;;;13.20;99.90;;;;;;5036517;28;20461;-74
2022/06/14 05:13:25;;;;;;;7.20;2.40;;;13.30;99.90;;;;;;5048626;28;20477;-75
2022/06/14 05:20:27;;;;;;;3.70;2.50;;;13.30;99.90;;;;;;5048956;28;20573;-74
2022/06/14 05:23:36;;;;;;;5.77;2.40;;;13.30;99.90;;;;;;5050951;28;20489;-75
2022/06/14 05:27:03;;;;;;;7.13;3.13;;;13.40;99.90;;;;;;5039971;28;20507;-75
2022/06/14 05:30:19;;;;;;;7.07;3.20;;;13.40;99.90;;;;;;5043522;28;20470;-75
2022/06/14 05:33:53;;;;;;;4.27;2.83;;;13.40;99.90;;;;;;5051973;28;20479;-74
2022/06/14 05:37:18;;;;;;;8.87;3.07;;;13.40;99.90;;;;;;5047622;28;20972;-75
2022/06/14 05:40:30;;;;;;;4.80;2.33;;;13.40;99.90;;;;;;5039733;28;21594;-74
2022/06/14 05:43:55;;;;;;;5.10;2.63;;;13.50;99.90;;;;;;5047808;28;21121;-74
2022/06/14 05:50:21;;;;;;;4.57;2.80;;;13.50;99.90;;;;;;5054838;28;20453;-75
2022/06/14 05:53:37;;;;;;;5.97;2.60;;;13.50;99.90;;;;;;5053977;28;20853;-75
2022/06/14 05:56:58;;;;;;;5.10;2.70;;;13.50;99.90;;;;;;5054541;28;20602;-75
2022/06/14 06:00:10;;;;;;;4.40;2.80;;;13.50;99.90;;;;;;5049523;28;20450;-75
2022/06/14 06:03:10;;;;;;;2.90;2.40;;;13.50;99.90;;;;;;5045738;28;20477;-75
2022/06/14 06:06:06;;;;;;;8.73;3.13;;;13.50;99.90;;;;;;5036303;28;20478;-75
2022/06/14 06:09:09;;;;;;;7.40;2.83;;;13.50;99.90;;;;;;5046844;28;20874;-74
2022/06/14 06:12:10;;;;;;;6.10;2.63;;;13.50;99.90;;;;;;5057629;28;20458;-75
2022/06/14 06:15:08;;;;;;;10.10;3.37;;;13.50;99.90;;;;;;5056660;28;20477;-74
2022/06/14 06:18:02;;;;;;;4.97;2.70;;;13.50;99.90;;;;;;5057139;28;21066;-75
2022/06/14 06:21:05;;;;;;;3.20;2.30;;;13.50;99.90;;;;;;5055245;28;20462;-76
2022/06/14 06:23:59;;;;;;;6.47;3.10;;;13.60;99.90;;;;;;5052807;28;20576;-74
2022/06/14 06:27:07;;;;;;;5.87;3.03;;;13.60;99.90;;;;;;5054961;28;20473;-74
2022/06/14 06:30:02;;;;;;;4.27;2.90;;;13.70;99.90;;;;;;5055753;28;20458;-74
2022/06/14 06:32:54;;;;;;;4.10;2.70;;;13.70;99.90;;;;;;5054176;28;20556;-74
2022/06/14 06:35:50;;;;;;;6.90;2.57;;;13.80;99.90;;;;;;5055030;28;20478;-74
2022/06/14 06:38:49;;;;;;;6.37;2.77;;;13.80;99.90;;;;;;5057845;28;21116;-74
2022/06/14 06:41:50;;;;;;;5.90;2.90;;;13.90;99.90;;;;;;5056958;28;20458;-74
2022/06/14 06:44:47;;;;;;;5.83;3.10;;;14.00;99.90;;;;;;5053422;28;20470;-76
2022/06/14 06:47:43;;;;;;;4.77;2.77;;;14.00;99.90;;;;;;5054340;28;20533;-74
2022/06/14 06:50:43;;;;;;;8.43;3.20;;;14.10;99.90;;;;;;5056078;28;20449;-74
2022/06/14 06:53:42;;;;;;;5.23;2.50;;;14.10;99.90;;;;;;5056586;28;21446;-74
2022/06/14 06:56:40;;;;;;;9.47;2.97;;;14.20;99.90;;;;;;5052712;28;20489;-74
2022/06/14 06:59:37;;;;;;;8.07;2.50;;;14.30;99.90;;;;;;5056477;28;20549;-74
2022/06/14 07:02:41;;;;;;;9.50;2.53;;;14.30;99.90;;;;;;5055887;28;20933;-74
2022/06/14 07:05:30;;;;;;;4.00;2.40;;;14.40;99.90;;;;;;5053600;28;20984;-74
2022/06/14 07:08:23;;;;;;;5.33;2.87;;;14.40;99.90;;;;;;5054277;28;20542;-74
2022/06/14 07:11:18;;;;;;;5.43;2.63;;;14.40;99.90;;;;;;5055552;28;20458;-74
2022/06/14 07:14:17;;;;;;;5.90;2.50;;;14.50;99.90;;;;;;5053664;28;20501;-74
2022/06/14 07:17:13;;;;;;;4.93;2.90;;;14.60;99.90;;;;;;5052515;28;20494;-74
2022/06/14 07:20:09;;;;;;;4.60;2.60;;;14.60;99.90;;;;;;5054691;28;20454;-74
2022/06/14 07:23:08;;;;;;;8.27;2.83;;;14.60;99.90;;;;;;5056015;28;20604;-74
2022/06/14 07:26:04;;;;;;;4.40;2.50;;;14.60;99.90;;;;;;5052808;28;20469;-74
2022/06/14 07:28:59;;;;;;;7.67;2.40;;;14.60;99.90;;;;;;5050941;28;21078;-73
2022/06/14 07:31:53;;;;;;;3.67;1.90;;;14.70;99.90;;;;;;5069378;28;20536;-74
2022/06/14 07:34:43;;;;;;;4.83;2.40;;;14.70;99.90;;;;;;5058629;28;20473;-74
2022/06/14 07:37:40;;;;;;;7.13;2.43;;;14.80;99.90;;;;;;5055239;28;20446;-74
2022/06/14 07:40:54;;;;;;;5.30;2.67;;;14.80;99.90;;;;;;5053678;28;20469;-74
2022/06/14 07:43:54;;;;;;;5.03;2.30;;;14.80;99.90;;;;;;5053017;28;20543;-74
2022/06/14 07:46:57;;;;;;;5.83;2.60;;;14.90;99.90;;;;;;5053685;28;20479;-74
2022/06/14 07:49:55;;;;;;;5.30;2.43;;;14.90;99.90;;;;;;5055717;28;20476;-74
2022/06/14 07:52:49;;;;;;;6.77;2.90;;;15.00;99.90;;;;;;5051817;28;20573;-74
2022/06/14 07:55:44;;;;;;;4.70;2.50;;;15.10;99.90;;;;;;5054547;28;20553;-77
2022/06/14 07:58:38;;;;;;;4.70;2.10;;;15.10;99.90;;;;;;5053686;28;20983;-74
2022/06/14 08:01:38;;;;;;;8.93;2.60;;;15.10;99.90;;;;;;5052420;28;20497;-74
2022/06/14 08:04:32;;;;;;;4.23;2.27;;;15.10;99.90;;;;;;5050506;28;20935;-74
2022/06/14 08:07:21;;;;;;;6.90;2.20;;;15.30;99.90;;;;;;5054079;28;20986;-74
2022/06/14 08:10:21;;;;;;;4.00;2.00;;;15.30;99.90;;;;;;5054759;28;20537;-74
2022/06/14 08:13:14;;;;;;;3.73;2.20;;;15.30;99.90;;;;;;5050383;28;20470;-74
2022/06/14 08:16:12;;;;;;;5.60;2.60;;;15.40;99.90;;;;;;5047662;28;20585;-74
2022/06/14 08:19:06;;;;;;;3.97;2.00;;;15.40;99.90;;;;;;5055313;28;20459;-74
2022/06/14 08:22:01;;;;;;;2.83;2.30;;;15.40;99.90;;;;;;5055179;28;20569;-77
2022/06/14 08:24:55;;;;;;;4.03;2.10;;;15.40;99.90;;;;;;5051830;28;20547;-74
2022/06/14 08:27:57;;;;;;;7.10;2.53;;;15.50;99.90;;;;;;5054043;28;20482;-75
2022/06/14 08:30:49;;;;;;;3.30;1.70;;;15.60;99.90;;;;;;5055697;28;20508;-74
2022/06/14 08:33:44;;;;;;;5.60;2.40;;;15.70;99.90;;;;;;5049432;28;20994;-75
2022/06/14 08:36:44;;;;;;;3.37;2.00;;;15.70;99.90;;;;;;5051353;28;20485;-75
2022/06/14 08:39:35;;;;;;;5.50;2.07;;;15.70;99.90;;;;;;5052355;28;20542;-75
2022/06/14 08:42:31;;;;;;;4.90;2.20;;;15.70;99.90;;;;;;5051984;28;20499;-75
2022/06/14 08:45:34;;;;;;;4.37;2.73;;;15.70;99.90;;;;;;5052532;28;21072;-75
2022/06/14 08:48:36;;;;;;;4.13;2.27;;;15.80;99.90;;;;;;5051530;28;20820;-75
2022/06/14 08:51:33;;;;;;;4.67;2.30;;;15.80;99.90;;;;;;5056086;28;21043;-75
2022/06/14 08:54:45;;;;;;;3.60;2.07;;;15.90;99.90;;;;;;5052197;28;20517;-75
2022/06/14 08:58:08;;;;;;;4.50;2.43;;;15.90;99.90;;;;;;5053988;28;20455;-75
2022/06/14 09:01:12;;;;;;;3.87;2.00;;;15.90;99.90;;;;;;5055622;28;20875;-75
2022/06/14 09:04:34;;;;;;;4.17;2.00;;;16.00;99.90;;;;;;5048594;28;20470;-75
2022/06/14 09:08:00;;;;;;;4.83;2.40;;;16.10;99.90;;;;;;5052868;28;22456;-75
2022/06/14 09:11:08;;;;;;;7.27;2.23;;;16.10;99.90;;;;;;5045775;28;20466;-75
2022/06/14 09:14:24;;;;;;;4.70;1.90;;;16.10;99.90;;;;;;5049030;28;21124;-77
2022/06/14 09:17:38;;;;;;;4.00;1.80;;;16.10;99.90;;;;;;5050441;28;20511;-75
2022/06/14 09:20:40;;;;;;;6.13;2.40;;;16.20;99.90;;;;;;5053248;28;20934;-75
2022/06/14 09:23:42;;;;;;;4.10;2.10;;;16.30;99.90;;;;;;5051737;28;20561;-75
2022/06/14 09:26:46;;;;;;;4.20;1.83;;;16.40;99.90;;;;;;5048744;28;21372;-75
2022/06/14 09:30:08;;;;;;;3.30;1.90;;;16.60;99.90;;;;;;5053378;28;20459;-75
2022/06/14 09:33:44;;;;;;;3.20;1.90;;;16.70;99.90;;;;;;5048966;28;20540;-75
2022/06/14 09:37:16;;;;;;;4.90;2.13;;;16.70;99.90;;;;;;5030137;28;20485;-75
2022/06/14 09:40:34;;;;;;;4.80;2.33;;;16.70;99.90;;;;;;5053797;28;20674;-75
2022/06/14 09:44:04;;;;;;;3.97;1.60;;;16.70;99.90;;;;;;5049395;28;20627;-75
2022/06/14 09:47:11;;;;;;;2.40;1.57;;;16.80;99.90;;;;;;5043026;28;20489;-74
2022/06/14 09:50:33;;;;;;;2.50;1.60;;;16.80;99.90;;;;;;5051356;28;20544;-74
2022/06/14 09:53:57;;;;;;;4.03;2.07;;;16.80;99.90;;;;;;5048856;28;20629;-74
2022/06/14 09:57:18;;;;;;;2.00;1.70;;;16.80;99.90;;;;;;5050981;28;20478;-75
2022/06/14 10:00:35;;;;;;;3.23;1.73;;;16.80;99.90;;;;;;5040602;28;20458;-75
2022/06/14 10:03:58;;;;;;;4.33;1.60;;;16.80;99.90;;;;;;5050599;28;20584;-75
2022/06/14 10:07:20;;;;;;;3.20;1.70;;;16.80;99.90;;;;;;5035079;28;20465;-75
2022/06/14 10:10:22;;;;;;;3.37;1.50;;;16.90;99.90;;;;;;5050041;28;20544;-75
2022/06/14 10:13:53;;;;;;;6.00;1.87;;;16.90;99.90;;;;;;5049572;28;21244;-74
2022/06/14 10:17:21;;;;;;;2.57;1.70;;;17.00;99.90;;;;;;5047295;28;20508;-75
2022/06/14 10:20:36;;;;;;;6.70;1.70;;;17.00;99.90;;;;;;5059171;28;20481;-75
2022/06/14 10:23:45;;;;;;;4.07;1.50;;;17.00;99.90;;;;;;5049765;28;20596;-75
2022/06/14 10:30:19;;;;;;;2.20;1.50;;;17.10;99.90;;;;;;5051486;28;20533;-74
2022/06/14 10:33:39;;;;;;;2.77;1.60;;;17.20;99.90;;;;;;5050925;28;20497;-75
2022/06/14 10:36:49;;;;;;;4.73;1.67;;;17.30;99.90;;;;;;5050264;28;20485;-75
2022/06/14 10:40:14;;;;;;;2.37;1.30;;;17.30;99.90;;;;;;5049087;28;20536;-74
2022/06/14 10:43:13;;;;;;;2.53;1.50;;;17.30;99.90;;;;;;5049961;28;20524;-74
2022/06/14 10:46:24;;;;;;;5.93;2.23;;;17.40;99.90;;;;;;5046101;28;20545;-74
2022/06/14 10:49:27;;;;;;;3.63;1.77;;;17.50;99.90;;;;;;5050804;28;20969;-74
2022/06/14 10:52:37;;;;;;;2.30;1.40;;;17.50;99.90;;;;;;5048967;28;20545;-75
2022/06/14 10:55:55;;;;;;;5.57;1.80;;;17.60;99.90;;;;;;5049237;28;20865;-75
2022/06/14 10:59:11;;;;;;;2.30;1.37;;;17.80;99.90;;;;;;5034114;28;20598;-75
2022/06/14 11:02:05;;;;;;;4.33;1.80;;;17.80;99.90;;;;;;5044914;28;21880;-76
2022/06/14 11:05:00;;;;;;;8.03;2.50;;;17.80;99.90;;;;;;5053224;28;20542;-75
2022/06/14 11:08:06;;;;;;;2.13;1.27;;;17.80;99.90;;;;;;5050501;28;20458;-75
2022/06/14 11:11:23;;;;;;;3.40;1.80;;;17.80;99.90;;;;;;5048115;28;21098;-75
2022/06/14 11:14:23;;;;;;;3.10;1.50;;;17.80;99.90;;;;;;5047954;28;20564;-74
2022/06/14 11:17:41;;;;;;;2.77;1.30;;;17.80;99.90;;;;;;5049072;28;20478;-74
2022/06/14 11:20:41;;;;;;;3.70;1.47;;;17.90;99.90;;;;;;5047113;28;20572;-75
2022/06/14 11:23:39;;;;;;;2.50;1.73;;;18.00;99.90;;;;;;5051370;28;21115;-75
2022/06/14 11:26:33;;;;;;;2.97;1.40;;;18.10;99.90;;;;;;5048216;28;20747;-75
2022/06/14 11:29:32;;;;;;;2.37;1.33;;;18.10;99.90;;;;;;5051600;28;20447;-74
2022/06/14 11:32:28;;;;;;;2.10;1.30;;;18.10;99.90;;;;;;5052253;28;20482;-76
2022/06/14 11:35:33;;;;;;;5.40;1.80;;;18.20;99.90;;;;;;5053346;28;20585;-75
2022/06/14 11:38:49;;;;;;;2.77;1.47;;;18.10;99.90;;;;;;5049133;28;20804;-77
2022/06/14 11:41:42;;;;;;;2.70;1.57;;;18.10;99.90;;;;;;5051729;28;20553;-75
2022/06/14 11:45:10;;;;;;;2.73;1.30;;;18.10;99.90;;;;;;5047459;28;21013;-75
2022/06/14 11:48:16;;;;;;;1.20;1.10;;;18.20;99.90;;;;;;4983441;28;20456;-77
2022/06/14 11:51:13;;;;;;;3.60;1.40;;;18.20;99.90;;;;;;4987792;28;20824;-77
2022/06/14 11:54:19;;;;;;;2.67;1.50;;;18.10;99.90;;;;;;5053885;28;20509;-78
2022/06/14 11:57:14;;;;;;;1.57;1.30;;;18.10;99.90;;;;;;5054038;28;20492;-76
2022/06/14 12:00:13;;;;;;;3.10;1.30;;;18.10;99.90;;;;;;5054717;28;20537;-76
2022/06/14 12:03:46;;;;;;;1.90;1.27;;;18.10;99.90;;;;;;5056931;28;20497;-76
2022/06/14 12:06:42;;;;;;;3.07;1.37;;;18.10;99.90;;;;;;5044654;28;20802;-77
2022/06/14 12:10:12;;;;;;;2.10;1.60;;;18.10;99.90;;;;;;5054013;28;20462;-76
2022/06/14 12:13:14;;;;;;;3.63;1.67;;;18.10;99.90;;;;;;5036167;28;20484;-75
2022/06/14 12:16:10;;;;;;;2.27;1.40;;;18.10;99.90;;;;;;5042316;28;20484;-75
2022/06/14 12:19:08;;;;;;;1.90;1.20;;;18.10;99.90;;;;;;5044944;28;21027;-75
2022/06/14 12:28:30;;;;;;;2.87;1.27;;;18.20;99.90;;;;;;5047153;28;20528;-77
2022/06/14 12:31:28;;;;;;;3.27;1.80;;;18.30;99.90;;;;;;5050424;28;20517;-75
2022/06/14 12:34:22;;;;;;;2.43;1.20;;;18.30;99.90;;;;;;5047928;28;20474;-75
2022/06/14 12:37:29;;;;;;;2.03;1.40;;;18.30;99.90;;;;;;5046479;28;20482;-74
2022/06/14 12:40:24;;;;;;;2.63;1.20;;;18.30;99.90;;;;;;5043147;28;21439;-76
2022/06/14 12:43:18;;;;;;;1.37;1.27;;;18.30;99.90;;;;;;5051272;28;20523;-75
2022/06/14 12:46:11;;;;;;;2.20;1.60;;;18.30;99.90;;;;;;5039133;28;20945;-74
2022/06/14 12:49:10;;;;;;;1.90;1.40;;;18.20;99.90;;;;;;5043154;28;20451;-74
2022/06/14 12:52:03;;;;;;;5.03;1.50;;;18.20;99.90;;;;;;5048508;28;20461;-75
2022/06/14 12:55:00;;;;;;;1.80;1.53;;;18.20;99.90;;;;;;5040427;28;20663;-75
2022/06/14 12:58:04;;;;;;;2.13;1.40;;;18.20;99.90;;;;;;5053401;28;20470;-75
2022/06/14 13:00:56;;;;;;;2.80;1.33;;;18.10;99.90;;;;;;5046330;28;20466;-75
2022/06/14 13:03:52;;;;;;;1.87;1.07;;;18.10;99.90;;;;;;5059070;28;20489;-75
2022/06/14 13:06:58;;;;;;;2.40;1.53;;;18.10;99.90;;;;;;5052819;28;20451;-74
2022/06/14 13:10:00;;;;;;;2.87;1.60;;;18.10;99.90;;;;;;5050602;28;20685;-75
2022/06/14 13:13:00;;;;;;;1.27;1.17;;;18.10;99.90;;;;;;5049845;28;20575;-75
2022/06/14 13:16:05;;;;;;;4.63;1.50;;;18.10;99.90;;;;;;5051689;28;20473;-75
2022/06/14 13:19:04;;;;;;;1.87;1.30;;;18.10;99.90;;;;;;5051157;28;20480;-74
2022/06/14 13:22:22;;;;;;;2.17;1.30;;;18.10;99.90;;;;;;5050342;28;20470;-75
2022/06/14 13:25:23;;;;;;;3.70;1.30;;;18.10;99.90;;;;;;5045360;28;20478;-75
2022/06/14 13:28:24;;;;;;;4.30;1.30;;;18.00;99.90;;;;;;5049838;28;20453;-75
2022/06/14 13:31:27;;;;;;;2.77;1.60;;;18.00;99.90;;;;;;5043421;28;20548;-74
2022/06/14 13:34:29;;;;;;;2.83;1.30;;;18.00;99.90;;;;;;5045470;28;20565;-75
2022/06/14 13:37:31;;;;;;;2.97;1.60;;;18.00;99.90;;;;;;5049295;28;20539;-75
2022/06/14 13:40:25;;;;;;;1.60;1.47;;;18.10;99.90;;;;;;5043962;28;20501;-75
2022/06/14 13:43:23;;;;;;;3.70;1.70;;;18.10;99.90;;;;;;5040031;28;23372;-75
2022/06/14 13:46:21;;;;;;;2.80;1.50;;;18.10;99.90;;;;;;5049152;28;20485;-76
2022/06/14 13:49:28;;;;;;;2.57;1.40;;;18.10;99.90;;;;;;5043437;28;20961;-76
2022/06/14 13:52:26;;;;;;;3.63;1.50;;;18.20;99.90;;;;;;5049948;28;20544;-76
2022/06/14 13:55:23;;;;;;;3.50;1.40;;;18.20;99.90;;;;;;5041912;28;21255;-74
2022/06/14 13:58:17;;;;;;;1.70;1.40;;;18.20;99.90;;;;;;5049899;28;20501;-74
2022/06/14 14:01:24;;;;;;;2.50;1.10;;;18.20;99.90;;;;;;5035524;28;20486;-78
2022/06/14 14:04:20;;;;;;;1.57;1.10;;;18.20;99.90;;;;;;5051100;28;20548;-75
2022/06/14 14:07:17;;;;;;;2.07;1.47;;;18.20;99.90;;;;;;5058888;28;20529;-75
2022/06/14 14:10:50;;;;;;;1.87;1.50;;;18.30;99.90;;;;;;5048928;28;20540;-76
2022/06/14 14:13:42;;;;;;;1.90;1.30;;;18.20;99.90;;;;;;5041229;28;20477;-77
2022/06/14 14:16:38;;;;;;;2.33;1.33;;;18.20;99.90;;;;;;5048448;28;20455;-77
2022/06/14 14:19:36;;;;;;;3.37;1.60;;;18.20;99.90;;;;;;5051579;28;21008;-78
2022/06/14 14:22:31;;;;;;;2.20;1.60;;;18.30;99.90;;;;;;5047582;28;20507;-77
2022/06/14 14:25:28;;;;;;;3.97;1.60;;;18.40;99.90;;;;;;5051774;28;20563;-78
2022/06/14 14:28:24;;;;;;;6.00;2.23;;;18.70;99.90;;;;;;5052257;28;20965;-78
2022/06/14 14:31:26;;;;;;;4.10;1.47;;;18.90;99.90;;;;;;5046993;28;20442;-78
2022/06/14 14:34:25;;;;;;;3.03;1.67;;;19.10;99.90;;;;;;5054642;28;20478;-78
2022/06/14 14:37:24;;;;;;;3.10;1.50;;;19.20;99.90;;;;;;5053720;28;20447;-79
2022/06/14 14:40:22;;;;;;;4.00;1.60;;;19.20;99.90;;;;;;5050883;28;20473;-77
2022/06/14 14:43:16;;;;;;;2.77;1.30;;;19.20;99.90;;;;;;5056682;28;20498;-78
2022/06/14 14:46:11;;;;;;;3.10;1.70;;;19.20;99.90;;;;;;5042877;28;20580;-76
2022/06/14 14:49:07;;;;;;;1.47;1.37;;;19.20;99.90;;;;;;5062451;28;20473;-78
2022/06/14 14:52:14;;;;;;;4.03;1.43;;;19.10;99.90;;;;;;5052352;28;20550;-78
2022/06/14 14:55:13;;;;;;;3.30;1.40;;;19.00;99.90;;;;;;5054553;28;20526;-78
2022/06/14 14:58:09;;;;;;;1.70;1.30;;;19.00;99.90;;;;;;5053075;28;20489;-78
2022/06/14 15:07:38;;;;;;;4.30;1.60;;;19.00;99.90;;;;;;5054470;28;20452;-78
2022/06/14 15:10:28;;;;;;;1.60;1.27;;;19.10;99.90;;;;;;5048504;28;20488;-75
2022/06/14 15:13:32;;;;;;;1.87;1.50;;;19.20;99.90;;;;;;5049271;28;20989;-75
2022/06/14 15:16:23;;;;;;;3.47;1.87;;;19.30;99.90;;;;;;5039853;28;20474;-75
2022/06/14 15:22:33;;;;;;;2.63;1.30;;;19.50;99.90;;;;;;5044401;28;20546;-75
2022/06/14 15:25:27;;;;;;;2.13;1.70;;;19.60;99.90;;;;;;5048716;28;20584;-75
2022/06/14 15:28:20;;;;;;;1.30;1.20;;;19.70;99.90;;;;;;5045027;28;20446;-74
2022/06/14 15:31:09;;;;;;;1.80;1.20;;;19.80;99.90;;;;;;5047082;28;20989;-77
2022/06/14 15:34:07;;;;;;;1.40;1.23;;;19.90;99.90;;;;;;5052877;28;20505;-79
2022/06/14 15:36:58;;;;;;;2.50;1.57;;;19.90;99.90;;;;;;5046028;28;20442;-79
2022/06/14 15:39:52;;;;;;;2.80;1.10;;;19.90;99.90;;;;;;5047769;28;20565;-77
2022/06/14 15:42:57;;;;;;;5.00;1.53;;;19.80;99.90;;;;;;5052776;28;20482;-77
2022/06/14 15:45:50;;;;;;;1.50;1.30;;;19.80;99.90;;;;;;5049601;28;20990;-78
2022/06/14 15:48:39;;;;;;;1.70;1.50;;;19.70;99.90;;;;;;5068124;28;20529;-78
2022/06/14 15:51:32;;;;;;;1.80;1.43;;;19.70;99.90;;;;;;5054496;28;20457;-78
2022/06/14 15:54:28;;;;;;;1.90;1.23;;;19.80;99.90;;;;;;5051955;28;20471;-79
2022/06/14 15:57:21;;;;;;;2.57;1.17;;;19.70;99.90;;;;;;5045249;28;20952;-77
2022/06/14 16:00:18;;;;;;;2.93;1.20;;;19.80;99.90;;;;;;5054749;28;20662;-78
2022/06/14 16:03:12;;;;;;;1.20;1.10;;;20.00;99.90;;;;;;5052118;28;20561;-79
2022/06/14 16:06:03;;;;;;;1.80;1.33;;;20.10;99.90;;;;;;5052817;28;20482;-77
2022/06/14 16:09:00;;;;;;;2.00;1.17;;;20.10;99.90;;;;;;5057176;28;20450;-78
2022/06/14 16:11:52;;;;;;;2.80;1.50;;;20.10;99.90;;;;;;5052686;28;20818;-78
2022/06/14 16:14:52;;;;;;;2.60;1.20;;;20.10;99.90;;;;;;5050657;28;20581;-78
2022/06/14 16:17:43;;;;;;;1.47;1.10;;;20.20;99.90;;;;;;5046996;28;20454;-76
2022/06/14 16:20:36;;;;;;;2.20;1.13;;;20.40;99.90;;;;;;5053184;28;20548;-76
2022/06/14 16:23:24;;;;;;;1.73;1.20;;;20.50;99.90;;;;;;5046751;28;20462;-79
2022/06/14 16:26:24;;;;;;;4.33;1.03;;;20.70;99.90;;;;;;5054646;28;20475;-78
2022/06/14 16:29:22;;;;;;;1.20;1.00;;;20.80;99.90;;;;;;5050185;28;20885;-78
2022/06/14 16:32:23;;;;;;;1.07;0.97;;;20.90;99.90;;;;;;5048190;28;20450;-77
2022/06/14 16:35:29;;;;;;;2.17;1.03;;;21.00;99.90;;;;;;5039496;28;21150;-77
2022/06/14 16:38:42;;;;;;;2.30;1.17;;;21.10;99.90;;;;;;5050530;28;20579;-76
2022/06/14 16:41:46;;;;;;;0.90;0.87;;;20.90;99.90;;;;;;5054536;28;20512;-76
2022/06/14 16:44:45;;;;;;;1.30;1.03;;;20.80;99.90;;;;;;5048079;28;20488;-77
2022/06/14 16:47:40;;;;;;;1.20;1.10;;;20.60;99.90;;;;;;5040539;28;20463;-76